Time;durP1;ratioP1;P1;durP2;ratioP2;P2;SDS_P1;SDS_P2;PMS_P1;PMS_P2;Temp;Humidity;BMP_temperature;BMP_pressure;BME280_temperature;BME280_humidity;BME280_pressure;Samples;Min_cycle;Max_cycle;Signal;HPM_P1;HPM_P2
2022/05/01 00:02:04;;;;;;;10.52;5.78;;;10.00;99.90;;;9.97;74.35;101735.97;5206940;28;20425;-73
2022/05/01 00:04:36;;;;;;;10.77;5.78;;;9.90;99.90;;;9.92;74.57;101740.06;5208144;28;20566;-73
2022/05/01 00:07:12;;;;;;;11.40;5.35;;;9.90;99.90;;;9.87;74.81;101728.50;5207857;28;20425;-74
2022/05/01 00:09:44;;;;;;;9.98;5.72;;;9.80;99.90;;;9.78;75.13;101728.03;5207794;28;20052;-73
2022/05/01 00:12:17;;;;;;;10.68;6.05;;;9.80;99.90;;;9.72;75.61;101727.69;5207176;28;20490;-75
2022/05/01 00:14:49;;;;;;;11.70;6.82;;;9.70;99.90;;;9.70;76.03;101729.31;5207966;28;20536;-75
2022/05/01 00:17:22;;;;;;;10.68;6.07;;;9.70;99.90;;;9.67;75.91;101731.75;5207674;28;20052;-75
2022/05/01 00:19:54;;;;;;;11.43;5.35;;;9.60;99.90;;;9.65;76.28;101730.75;5207727;28;20045;-73
2022/05/01 00:22:26;;;;;;;10.95;6.22;;;9.60;99.90;;;9.62;76.34;101730.63;5206800;28;20103;-73
2022/05/01 00:24:58;;;;;;;10.95;6.25;;;9.60;99.90;;;9.57;76.36;101724.25;5207985;28;20045;-74
2022/05/01 00:27:31;;;;;;;11.27;5.60;;;9.50;99.90;;;9.52;76.64;101724.03;5207640;28;20099;-73
2022/05/01 00:30:05;;;;;;;12.35;6.57;;;9.50;99.90;;;9.49;76.97;101719.53;5207230;28;20045;-74
2022/05/01 00:38:17;;;;;;;13.13;5.63;;;9.40;99.90;;;9.34;77.25;101718.72;5206989;28;20136;-74
2022/05/01 00:40:49;;;;;;;13.25;5.97;;;9.40;99.90;;;9.29;77.66;101724.50;5207292;28;20049;-73
2022/05/01 00:43:21;;;;;;;10.90;5.93;;;9.30;99.90;;;9.25;77.85;101728.63;5206621;28;20143;-75
2022/05/01 00:45:53;;;;;;;11.48;5.88;;;9.30;99.90;;;9.20;78.08;101727.50;5206969;28;20049;-74
2022/05/01 00:48:27;;;;;;;10.95;6.10;;;9.20;99.90;;;9.14;77.90;101725.44;5206659;28;20060;-74
2022/05/01 00:50:59;;;;;;;11.55;6.28;;;9.20;99.90;;;9.10;77.98;101725.19;5206952;28;20227;-75
2022/05/01 00:53:31;;;;;;;10.60;6.25;;;9.10;99.90;;;9.04;78.13;101717.94;5206542;28;20049;-73
2022/05/01 00:56:03;;;;;;;11.05;6.25;;;9.10;99.90;;;9.03;78.27;101723.94;5206875;28;20417;-73
2022/05/01 00:58:35;;;;;;;11.60;6.20;;;9.00;99.90;;;9.02;78.71;101726.47;5206530;28;20045;-74
2022/05/01 01:01:08;;;;;;;16.15;6.32;;;9.00;99.90;;;8.98;78.75;101726.28;5205648;28;20046;-74
2022/05/01 01:03:41;;;;;;;12.60;6.03;;;9.00;99.90;;;8.97;79.11;101716.69;5205954;28;20049;-74
2022/05/01 01:06:13;;;;;;;11.50;6.18;;;9.00;99.90;;;8.93;79.11;101719.94;5206653;28;20406;-73
2022/05/01 01:08:45;;;;;;;11.63;6.20;;;8.90;99.90;;;8.91;78.87;101724.16;5206292;28;20057;-74
2022/05/01 01:11:17;;;;;;;11.18;6.85;;;8.90;99.90;;;8.86;79.21;101712.59;5206958;28;20053;-74
2022/05/01 01:13:51;;;;;;;12.07;5.47;;;8.90;99.90;;;8.86;79.34;101723.00;5206495;28;20383;-73
2022/05/01 01:16:23;;;;;;;13.23;6.32;;;8.90;99.90;;;8.82;79.10;101714.94;5207033;28;20057;-73
2022/05/01 01:18:57;;;;;;;13.88;6.95;;;8.80;99.90;;;8.79;79.25;101715.66;5206848;28;20050;-74
2022/05/01 01:21:31;;;;;;;12.63;6.35;;;8.80;99.90;;;8.75;79.32;101713.72;5206673;28;20159;-73
2022/05/01 01:24:08;;;;;;;14.18;6.68;;;8.80;99.90;;;8.71;79.82;101714.34;5206329;28;20045;-73
2022/05/01 01:26:41;;;;;;;16.73;8.00;;;8.70;99.90;;;8.68;79.58;101717.66;5206886;28;20054;-73
2022/05/01 01:32:14;;;;;;;16.10;9.65;;;8.70;99.90;;;8.58;79.61;101719.63;5162848;28;20519;-73
2022/05/01 01:34:50;;;;;;;19.17;9.85;;;8.60;99.90;;;8.53;79.94;101721.06;5198092;28;20049;-74
2022/05/01 01:37:25;;;;;;;15.38;9.05;;;8.60;99.90;;;8.50;80.23;101720.91;5206516;28;20054;-74
2022/05/01 01:39:59;;;;;;;14.00;8.60;;;8.50;99.90;;;8.48;79.87;101722.53;5206391;28;20055;-74
2022/05/01 01:42:32;;;;;;;15.52;8.00;;;8.50;99.90;;;8.45;79.99;101722.34;5205969;28;20046;-73
2022/05/01 01:45:06;;;;;;;13.55;7.47;;;8.50;99.90;;;8.41;80.03;101719.56;5206337;28;20053;-74
2022/05/01 01:47:38;;;;;;;14.30;7.22;;;8.40;99.90;;;8.40;80.58;101724.66;5206447;28;20045;-73
2022/05/01 01:50:13;;;;;;;18.02;6.90;;;8.40;99.90;;;8.38;80.40;101727.19;5206107;28;20414;-73
2022/05/01 01:52:47;;;;;;;13.25;6.72;;;8.40;99.90;;;8.36;80.39;101728.81;5205945;28;20045;-73
2022/05/01 01:55:20;;;;;;;11.65;5.88;;;8.40;99.90;;;8.35;80.24;101720.88;5205806;28;20056;-74
2022/05/01 01:57:51;;;;;;;12.32;6.50;;;8.40;99.90;;;8.35;80.85;101731.28;5206214;28;20410;-75
2022/05/01 02:00:24;;;;;;;12.73;6.80;;;8.40;99.90;;;8.32;80.77;101729.38;5206035;28;20479;-73
2022/05/01 02:02:58;;;;;;;11.52;6.05;;;8.40;99.90;;;8.30;80.63;101731.00;5205583;28;20045;-73
2022/05/01 02:05:31;;;;;;;11.70;6.47;;;8.30;99.90;;;8.28;80.59;101730.03;5205725;28;20049;-72
2022/05/01 02:08:06;;;;;;;14.55;6.82;;;8.30;99.90;;;8.28;80.75;101736.91;5205636;28;20414;-74
2022/05/01 02:10:39;;;;;;;11.25;6.38;;;8.30;99.90;;;8.28;80.30;101731.69;5205943;28;20061;-74
2022/05/01 02:13:11;;;;;;;9.77;5.47;;;8.30;99.90;;;8.25;80.26;101729.84;5204696;28;20054;-73
2022/05/01 02:15:43;;;;;;;10.90;5.78;;;8.30;99.90;;;8.21;79.81;101727.84;5205759;28;20041;-72
2022/05/01 02:18:15;;;;;;;12.55;6.13;;;8.20;99.90;;;8.16;79.97;101724.09;5205432;28;20063;-72
2022/05/01 02:23:38;;;;;;;10.45;5.85;;;8.10;99.90;;;8.05;80.30;101719.97;5205343;28;20132;-73
2022/05/01 02:26:10;;;;;;;11.80;6.13;;;8.10;99.90;;;8.02;80.59;101719.75;5205757;28;20071;-75
2022/05/01 02:28:42;;;;;;;12.52;6.53;;;8.10;99.90;;;7.98;80.06;101723.00;5205322;28;20059;-74
2022/05/01 02:31:14;;;;;;;11.13;5.72;;;8.00;99.90;;;7.93;80.54;101719.22;5205596;28;20409;-73
2022/05/01 02:33:46;;;;;;;11.98;6.00;;;8.00;99.90;;;7.87;80.84;101719.75;5205294;28;20406;-73
2022/05/01 02:36:18;;;;;;;11.40;6.90;;;7.90;99.90;;;7.81;80.85;101709.88;5205429;28;20509;-75
2022/05/01 02:38:51;;;;;;;12.00;6.57;;;7.90;99.90;;;7.80;81.16;101713.28;5205357;28;20140;-75
2022/05/01 02:41:23;;;;;;;12.85;6.20;;;7.90;99.90;;;7.78;81.00;101720.09;5205606;28;20068;-73
2022/05/01 02:43:56;;;;;;;14.20;6.25;;;7.80;99.90;;;7.74;81.26;101718.13;5205189;28;20528;-73
2022/05/01 02:46:28;;;;;;;13.20;7.15;;;7.80;99.90;;;7.70;81.44;101721.34;5205340;28;20498;-73
2022/05/01 02:49:01;;;;;;;11.63;6.60;;;7.80;99.90;;;7.66;81.03;101713.28;5205370;28;20053;-73
2022/05/01 02:51:33;;;;;;;11.95;6.68;;;7.70;99.90;;;7.62;81.20;101717.38;5204965;28;20042;-73
2022/05/01 02:54:06;;;;;;;11.20;6.40;;;7.70;99.90;;;7.57;81.33;101713.63;5205491;28;20510;-74
2022/05/01 02:56:38;;;;;;;16.83;6.72;;;7.70;99.90;;;7.55;81.86;101705.72;5205340;28;20045;-73
2022/05/01 02:59:10;;;;;;;14.18;6.45;;;7.60;99.90;;;7.54;81.54;101706.53;5205254;28;20060;-73
2022/05/01 03:01:43;;;;;;;12.13;6.28;;;7.60;99.90;;;7.53;82.24;101706.44;5204871;28;20056;-72
2022/05/01 03:04:15;;;;;;;12.27;6.32;;;7.60;99.90;;;7.52;81.66;101702.06;5205267;28;20076;-72
2022/05/01 03:06:47;;;;;;;13.60;6.35;;;7.60;99.90;;;7.48;81.39;101700.94;5205234;28;20065;-73
2022/05/01 03:09:21;;;;;;;11.05;6.28;;;7.60;99.90;;;7.45;81.51;101692.09;5175533;23;20254;-70
2022/05/01 03:11:53;;;;;;;12.85;6.82;;;7.60;99.90;;;7.42;81.56;101686.72;5163805;28;20051;-71
2022/05/01 03:14:25;;;;;;;11.40;6.43;;;7.50;99.90;;;7.38;80.98;101697.72;5164470;28;20061;-72
2022/05/01 03:16:57;;;;;;;15.70;7.00;;;7.50;99.90;;;7.34;81.68;101700.09;5164589;28;20412;-70
2022/05/01 03:22:18;;;;;;;14.35;7.00;;;7.40;99.90;;;7.33;82.22;101698.31;5164377;28;20046;-70
2022/05/01 03:24:52;;;;;;;13.65;6.82;;;7.40;99.90;;;7.33;81.85;101682.75;5165720;28;20057;-70
2022/05/01 03:27:23;;;;;;;14.98;6.95;;;7.40;99.90;;;7.33;81.98;101692.22;5168304;28;20507;-70
2022/05/01 03:32:43;;;;;;;13.35;6.85;;;7.40;99.90;;;7.29;82.01;101688.53;5167569;28;20046;-71
2022/05/01 03:35:15;;;;;;;13.20;6.60;;;7.40;99.90;;;7.29;81.90;101685.94;5168228;28;20130;-70
2022/05/01 03:37:47;;;;;;;14.13;6.95;;;7.30;99.90;;;7.28;82.35;101672.88;5167837;28;20053;-70
2022/05/01 03:40:22;;;;;;;14.02;7.78;;;7.40;99.90;;;7.29;81.99;101685.94;5168184;28;20415;-70
2022/05/01 03:42:54;;;;;;;14.90;7.43;;;7.40;99.90;;;7.29;82.41;101691.13;5167993;28;20046;-70
2022/05/01 03:45:26;;;;;;;15.27;6.68;;;7.40;99.90;;;7.27;82.26;101687.56;5168235;28;20061;-70
2022/05/01 03:47:58;;;;;;;14.50;7.53;;;7.40;99.90;;;7.22;81.13;101685.47;5167746;28;20133;-70
2022/05/01 03:50:30;;;;;;;12.23;7.00;;;7.30;99.90;;;7.14;81.47;101686.69;5167841;28;20057;-70
2022/05/01 03:53:03;;;;;;;15.73;7.43;;;7.30;99.90;;;7.08;81.26;101680.31;5167367;28;20483;-70
2022/05/01 03:55:37;;;;;;;12.77;6.85;;;7.20;99.90;;;7.04;80.91;101687.81;5167935;28;20050;-70
2022/05/01 03:58:09;;;;;;;15.73;8.27;;;7.20;99.90;;;7.02;80.94;101692.00;5167810;28;20133;-68
2022/05/01 04:00:44;;;;;;;12.38;7.65;;;7.20;99.90;;;7.01;80.70;101687.63;5167706;28;20133;-72
2022/05/01 04:03:16;;;;;;;12.55;7.10;;;7.20;99.90;;;7.03;80.74;101686.91;5167451;28;20451;-71
2022/05/01 04:05:48;;;;;;;13.98;7.25;;;7.20;99.90;;;7.02;81.00;101686.81;5167467;28;20046;-70
2022/05/01 04:08:20;;;;;;;11.80;7.07;;;7.20;99.90;;;7.00;80.60;101701.41;5167420;28;20046;-70
2022/05/01 04:10:54;;;;;;;13.05;6.80;;;7.10;99.90;;;6.95;80.83;101701.09;5167126;28;20050;-69
2022/05/01 04:13:26;;;;;;;13.50;6.75;;;7.10;99.90;;;6.91;80.86;101690.41;5166958;28;20058;-70
2022/05/01 04:15:58;;;;;;;13.15;6.93;;;7.00;99.90;;;6.90;81.48;101693.81;5167428;28;20144;-70
2022/05/01 04:18:31;;;;;;;14.18;7.65;;;7.00;99.90;;;6.90;81.83;101694.72;5167481;28;20515;-70
2022/05/01 04:21:03;;;;;;;13.68;7.18;;;7.00;99.90;;;6.89;81.95;101694.63;5167169;28;20046;-70
2022/05/01 04:23:36;;;;;;;11.88;6.82;;;7.00;99.90;;;6.89;82.34;101698.09;5166290;28;20072;-70
2022/05/01 04:26:09;;;;;;;14.63;7.55;;;7.00;99.90;;;6.91;82.86;101690.41;5166380;28;20057;-70
2022/05/01 04:29:36;;;;;;;17.77;7.85;;;7.00;99.90;;;6.96;83.00;101696.78;5166590;28;20116;-71
2022/05/01 04:31:34;;;;;;;15.40;7.70;;;7.10;99.90;;;6.98;82.66;101692.63;5166686;28;20046;-70
2022/05/01 04:34:06;;;;;;;16.92;7.13;;;7.10;99.90;;;6.99;82.36;101695.31;5167084;28;20046;-70
2022/05/01 04:36:39;;;;;;;14.32;7.38;;;7.10;99.90;;;7.05;82.68;101697.41;5165803;28;20109;-70
2022/05/01 04:39:11;;;;;;;14.75;7.35;;;7.10;99.90;;;7.12;82.36;101702.16;5167036;28;20054;-71
2022/05/01 04:41:45;;;;;;;14.63;7.82;;;7.20;99.90;;;7.18;82.32;101706.84;5166880;28;20148;-70
2022/05/01 04:44:19;;;;;;;14.63;7.05;;;7.20;99.90;;;7.22;82.46;101694.16;5166856;28;20495;-70
2022/05/01 04:46:52;;;;;;;14.70;7.75;;;7.20;99.90;;;7.27;82.36;101692.75;5166471;28;20046;-70
2022/05/01 04:49:24;;;;;;;14.27;7.40;;;7.30;99.90;;;7.33;82.85;101695.72;5166664;28;20492;-70
2022/05/01 04:51:57;;;;;;;14.02;7.80;;;7.40;99.90;;;7.39;82.99;101686.53;5166506;28;20097;-70
2022/05/01 04:54:29;;;;;;;14.52;7.15;;;7.40;99.90;;;7.44;82.95;101695.50;5166525;28;20097;-70
2022/05/01 04:57:08;;;;;;;16.63;7.93;;;7.50;99.90;;;7.47;82.83;101695.69;5166491;28;20125;-71
2022/05/01 04:59:40;;;;;;;25.83;15.07;;;7.50;99.90;;;7.55;83.25;101699.63;5166804;28;20054;-70
2022/05/01 05:02:12;;;;;;;22.08;11.57;;;7.60;99.90;;;7.63;83.24;101701.03;5166376;28;20097;-72
2022/05/01 05:04:44;;;;;;;16.75;9.80;;;7.60;99.90;;;7.73;83.09;101700.75;5166417;28;20457;-70
2022/05/01 05:07:16;;;;;;;20.55;9.13;;;7.70;99.90;;;7.79;83.07;101698.53;5166245;28;20400;-70
2022/05/01 05:09:53;;;;;;;16.50;8.77;;;7.80;99.90;;;7.84;82.75;101702.31;5166242;28;20076;-70
2022/05/01 05:12:27;;;;;;;14.18;6.93;;;7.80;99.90;;;7.90;82.62;101694.00;5166200;28;20462;-70
2022/05/01 05:15:00;;;;;;;16.10;9.05;;;7.90;99.90;;;7.94;82.71;101700.25;5166027;28;20135;-72
2022/05/01 05:17:32;;;;;;;19.65;10.75;;;7.90;99.90;;;8.02;83.42;101709.38;5166084;28;20053;-70
2022/05/01 05:20:07;;;;;;;17.90;9.68;;;8.00;99.90;;;8.11;82.68;101700.44;5166115;28;20484;-71
2022/05/01 05:22:41;;;;;;;16.52;8.20;;;8.10;99.90;;;8.17;82.63;101699.91;5165664;28;20042;-69
2022/05/01 05:25:15;;;;;;;16.42;9.20;;;8.20;99.90;;;8.24;82.49;101702.06;5166165;28;20054;-69
2022/05/01 05:27:49;;;;;;;15.15;8.68;;;8.20;99.90;;;8.32;82.16;101703.41;5165942;28;20426;-69
2022/05/01 05:30:21;;;;;;;15.25;8.05;;;8.30;99.90;;;8.41;82.17;101706.59;5165987;28;20109;-71
2022/05/01 05:32:53;;;;;;;17.75;8.30;;;8.40;99.90;;;8.49;81.75;101706.13;5165447;28;20046;-68
2022/05/01 05:35:26;;;;;;;17.95;8.73;;;8.40;99.90;;;8.57;81.97;101712.66;5166021;28;20129;-70
2022/05/01 05:37:58;;;;;;;15.77;8.68;;;8.50;99.90;;;8.70;81.76;101710.84;5166061;28;20054;-69
2022/05/01 05:40:30;;;;;;;14.45;8.05;;;8.60;99.90;;;8.86;81.80;101715.19;5165745;28;20057;-70
2022/05/01 05:43:03;;;;;;;15.05;8.45;;;8.70;99.90;;;8.98;81.46;101722.78;5165244;28;20051;-71
2022/05/01 05:45:35;;;;;;;15.48;8.13;;;8.90;99.90;;;9.05;81.00;101711.91;5165575;28;20050;-70
2022/05/01 05:48:07;;;;;;;16.40;8.45;;;9.00;99.90;;;9.13;80.73;101717.56;5165396;28;20130;-69
2022/05/01 05:50:39;;;;;;;17.85;8.25;;;9.00;99.90;;;9.13;80.50;101723.66;5165436;28;20056;-71
2022/05/01 05:53:11;;;;;;;18.80;9.00;;;9.10;99.90;;;9.19;80.04;101733.47;5165277;28;20052;-71
2022/05/01 05:55:45;;;;;;;15.77;8.63;;;9.10;99.90;;;9.17;79.81;101729.91;5165393;28;20058;-72
2022/05/01 05:58:18;;;;;;;19.42;9.00;;;9.10;99.90;;;9.16;80.08;101733.31;5165467;28;20150;-71
2022/05/01 06:00:50;;;;;;;17.90;8.80;;;9.20;99.90;;;9.23;80.06;101741.53;5165243;28;20077;-70
2022/05/01 06:03:22;;;;;;;18.25;8.77;;;9.20;99.90;;;9.32;79.65;101729.84;5165124;28;20404;-71
2022/05/01 06:05:54;;;;;;;17.20;9.32;;;9.30;99.90;;;9.36;80.08;101732.72;5165228;28;20069;-71
2022/05/01 06:08:26;;;;;;;16.98;7.53;;;9.30;99.90;;;9.41;80.27;101730.38;5165137;28;20422;-71
2022/05/01 06:10:59;;;;;;;20.08;9.25;;;9.40;99.90;;;9.48;79.88;101732.47;5165291;28;20407;-72
2022/05/01 06:13:32;;;;;;;16.13;7.63;;;9.40;99.90;;;9.51;79.85;101733.53;5164888;28;20051;-70
2022/05/01 06:16:05;;;;;;;15.98;7.90;;;9.40;99.90;;;9.57;79.72;101729.47;5165082;28;20061;-71
2022/05/01 06:18:37;;;;;;;16.58;8.43;;;9.40;99.90;;;9.59;79.61;101725.25;5164858;28;20113;-71
2022/05/01 06:21:09;;;;;;;15.88;8.35;;;9.50;99.90;;;9.61;79.90;101724.53;5164941;28;20050;-72
2022/05/01 06:23:41;;;;;;;18.08;8.70;;;9.50;99.90;;;9.66;79.97;101724.78;5164854;28;20476;-72
2022/05/01 06:26:13;;;;;;;15.25;8.18;;;9.50;99.90;;;9.73;80.12;101730.38;5165226;28;20050;-73
2022/05/01 06:28:47;;;;;;;16.75;9.18;;;9.60;99.90;;;9.80;80.48;101721.19;5164826;28;20076;-70
2022/05/01 06:31:19;;;;;;;17.90;9.85;;;9.70;99.90;;;9.87;80.12;101718.09;5165287;28;20050;-71
2022/05/01 06:33:51;;;;;;;18.88;9.68;;;9.70;99.90;;;9.93;80.35;101721.00;5165043;28;20047;-70
2022/05/01 06:36:23;;;;;;;15.07;8.57;;;9.80;99.90;;;10.00;80.68;101717.00;5165187;28;20076;-70
2022/05/01 06:38:55;;;;;;;18.65;8.77;;;9.80;99.90;;;10.04;80.60;101711.13;5165006;28;20417;-71
2022/05/01 06:41:27;;;;;;;19.25;9.45;;;9.90;99.90;;;10.12;80.48;101716.75;5164652;28;20077;-73
2022/05/01 06:44:00;;;;;;;19.92;9.30;;;9.90;99.90;;;10.24;80.57;101715.69;5164998;28;20065;-71
2022/05/01 06:46:32;;;;;;;19.70;8.93;;;10.10;99.90;;;10.30;79.88;101715.09;5164987;28;20046;-71
2022/05/01 06:49:05;;;;;;;15.65;8.07;;;10.10;99.90;;;10.35;79.59;101718.81;5165210;28;20407;-72
2022/05/01 06:51:37;;;;;;;19.88;9.65;;;10.10;99.90;;;10.41;79.45;101724.34;5164481;28;20068;-72
2022/05/01 06:54:10;;;;;;;20.02;9.68;;;10.20;99.90;;;10.45;79.12;101721.09;5164623;28;20042;-72
2022/05/01 06:56:44;;;;;;;16.60;8.50;;;10.20;99.90;;;10.50;78.74;101722.22;5164825;28;20495;-71
2022/05/01 06:59:17;;;;;;;21.00;9.93;;;10.30;99.90;;;10.63;78.76;101726.34;5164680;28;20113;-70
2022/05/01 07:01:49;;;;;;;17.52;9.82;;;10.40;99.90;;;10.78;78.59;101729.69;5168193;28;20056;-72
2022/05/01 07:04:21;;;;;;;17.23;9.35;;;10.50;99.90;;;10.89;78.16;101730.22;5168300;28;20054;-73
2022/05/01 07:06:53;;;;;;;17.23;8.93;;;10.60;99.90;;;10.96;77.74;101729.69;5168605;28;20058;-72
2022/05/01 07:09:25;;;;;;;16.77;9.35;;;10.60;99.90;;;11.01;77.12;101727.28;5168446;28;20104;-72
2022/05/01 07:11:58;;;;;;;19.40;10.27;;;10.70;99.90;;;11.11;76.93;101722.56;5168025;28;20050;-59
2022/05/01 07:14:31;;;;;;;6.63;4.15;;;10.80;99.90;;;11.98;77.39;101728.28;5168671;28;20052;-59
2022/05/01 07:17:03;;;;;;;15.02;7.93;;;11.40;99.90;;;12.99;71.39;101727.31;5168332;28;20482;-58
2022/05/01 07:19:35;;;;;;;15.85;9.10;;;12.50;99.90;;;13.46;67.86;101726.53;5168949;28;20050;-70
2022/05/01 07:22:07;;;;;;;20.38;10.35;;;13.10;99.90;;;13.57;66.53;101724.34;5168309;28;20050;-72
2022/05/01 07:24:39;;;;;;;19.38;9.82;;;13.40;99.90;;;13.59;66.11;101727.91;5168479;28;20057;-73
2022/05/01 07:27:12;;;;;;;16.27;8.52;;;13.50;99.90;;;13.67;65.75;101729.06;5168276;28;20169;-73
2022/05/01 07:29:46;;;;;;;20.73;9.07;;;13.40;99.90;;;13.88;65.15;101725.44;5168408;28;20132;-72
2022/05/01 07:32:19;;;;;;;18.05;8.70;;;13.50;99.90;;;13.89;63.56;101728.16;5167305;28;20088;-72
2022/05/01 07:34:51;;;;;;;14.63;8.70;;;13.50;99.90;;;13.88;63.07;101733.31;5168173;28;20451;-71
2022/05/01 07:37:24;;;;;;;18.48;9.10;;;13.40;99.90;;;13.90;62.32;101734.28;5167441;28;20142;-76
2022/05/01 07:39:56;;;;;;;14.40;7.68;;;13.30;99.60;;;14.13;61.27;101731.63;5167506;28;20090;-69
2022/05/01 07:42:28;;;;;;;17.45;8.23;;;13.50;99.40;;;14.31;59.93;101734.00;5167570;28;20053;-69
2022/05/01 07:45:01;;;;;;;16.83;8.45;;;13.60;98.60;;;14.36;59.24;101735.03;5168447;28;20054;-69
2022/05/01 07:47:33;;;;;;;17.50;9.15;;;13.70;98.10;;;14.25;58.98;101722.41;5164550;28;20050;-68
2022/05/01 07:50:08;;;;;;;18.75;9.02;;;13.60;97.60;;;14.22;59.74;101738.03;5163972;28;20058;-69
2022/05/01 07:52:40;;;;;;;17.05;8.90;;;13.60;98.00;;;14.21;60.30;101725.75;5166699;28;20130;-68
2022/05/01 07:55:12;;;;;;;13.68;8.15;;;13.70;98.20;;;14.23;60.39;101729.34;5158570;28;20082;-68
2022/05/01 07:57:45;;;;;;;16.27;8.77;;;13.70;98.20;;;14.26;60.01;101729.41;5162694;28;20053;-68
2022/05/01 08:00:19;;;;;;;18.35;9.07;;;13.70;97.90;;;14.29;60.22;101719.06;5163140;28;20051;-70
2022/05/01 08:05:41;;;;;;;15.88;8.90;;;13.80;97.90;;;14.25;60.18;101720.66;5158938;28;20511;-70
2022/05/01 08:08:13;;;;;;;19.25;8.30;;;13.80;97.80;;;14.23;60.30;101722.34;5163265;28;20113;-68
2022/05/01 08:10:45;;;;;;;18.35;9.00;;;13.70;98.00;;;14.28;60.18;101722.50;5163727;28;20050;-70
2022/05/01 08:13:18;;;;;;;16.83;8.82;;;13.80;98.00;;;14.33;60.63;101715.66;5159641;28;20446;-71
2022/05/01 08:15:51;;;;;;;15.93;8.75;;;13.80;98.10;;;14.48;60.34;101720.59;5166950;28;20054;-70
2022/05/01 08:21:13;;;;;;;15.15;8.25;;;14.00;98.20;;;15.12;58.28;101728.78;5166978;28;20054;-71
2022/05/01 08:23:45;;;;;;;17.05;8.60;;;14.20;97.60;;;15.46;56.53;101722.84;5166373;28;20096;-72
2022/05/01 08:26:18;;;;;;;17.25;8.23;;;14.50;96.60;;;15.69;55.42;101726.16;5158138;28;20062;-71
2022/05/01 08:28:53;;;;;;;14.88;8.23;;;14.70;95.90;;;15.69;54.40;101722.66;5166881;28;20046;-74
2022/05/01 08:31:28;;;;;;;15.00;7.38;;;14.70;94.80;;;15.75;53.52;101722.81;5167024;28;20456;-71
2022/05/01 08:34:00;;;;;;;15.10;7.88;;;14.80;93.90;;;15.83;53.86;101720.41;5166686;28;20506;-73
2022/05/01 08:36:32;;;;;;;16.05;9.45;;;14.90;93.90;;;16.03;54.55;101724.47;5166945;28;20105;-74
2022/05/01 08:39:05;;;;;;;17.10;8.75;;;15.10;94.40;;;16.29;54.11;101722.53;5166887;28;20050;-75
2022/05/01 08:41:37;;;;;;;14.27;8.68;;;15.30;94.40;;;16.39;52.34;101721.94;5166352;28;20050;-70
2022/05/01 08:44:14;;;;;;;16.30;8.70;;;15.40;92.70;;;16.50;52.45;101719.59;5166581;28;20129;-70
2022/05/01 08:47:11;;;;;;;16.17;8.60;;;15.50;92.40;;;16.93;52.13;101712.75;5166822;28;20050;-69
2022/05/01 08:49:44;;;;;;;17.92;8.57;;;15.80;92.40;;;18.25;50.64;101713.75;5166761;28;20050;-70
2022/05/01 08:52:18;;;;;;;15.93;8.30;;;16.50;92.80;;;19.97;45.54;101710.13;5166207;28;20057;-69
2022/05/01 08:54:51;;;;;;;16.45;7.72;;;17.40;89.60;;;21.51;42.35;101713.09;5166596;28;20140;-70
2022/05/01 08:57:24;;;;;;;13.38;8.50;;;18.50;84.90;;;22.76;39.11;101716.03;5166120;28;20495;-67
2022/05/01 08:59:56;;;;;;;11.88;7.47;;;19.40;78.20;;;23.74;38.14;101715.81;5160745;28;20078;-68
2022/05/01 09:02:32;;;;;;;13.27;7.50;;;20.30;75.70;;;24.33;35.65;101714.56;5165624;28;20474;-68
2022/05/01 09:05:05;;;;;;;10.65;7.00;;;20.90;69.80;;;24.96;34.56;101711.34;5164766;28;20060;-72
2022/05/01 09:10:17;;;;;;;12.13;6.90;;;21.60;64.40;;;23.49;35.37;101705.25;5135440;28;20154;-67
2022/05/01 09:12:52;;;;;;;13.90;8.27;;;21.20;63.90;;;22.14;37.32;101706.25;5145310;28;20502;-68
2022/05/01 09:15:30;;;;;;;10.70;7.35;;;20.70;64.20;;;21.02;39.44;101707.53;5146344;28;20586;-69
2022/05/01 09:18:08;;;;;;;16.70;8.02;;;19.90;65.60;;;20.57;40.71;101714.25;5145454;28;20105;-69
2022/05/01 09:21:03;;;;;;;13.82;7.43;;;19.40;67.50;;;19.92;41.83;101702.13;5145594;28;20054;-68
2022/05/01 09:23:41;;;;;;;12.45;7.55;;;19.00;68.20;;;19.35;43.11;101700.53;5144868;28;20062;-68
2022/05/01 09:26:16;;;;;;;10.10;6.35;;;18.60;69.30;;;18.91;44.01;101708.75;5153978;28;20046;-68
2022/05/01 09:28:49;;;;;;;;;;;18.30;70.40;;;18.65;44.48;101705.66;5165877;28;20050;-67
2022/05/01 09:31:45;;;;;;;13.70;7.60;;;18.00;70.80;;;18.53;45.27;101702.81;5144120;28;19929;-67
2022/05/01 09:34:23;;;;;;;13.75;7.72;;;17.80;72.00;;;18.57;45.77;101702.00;5142768;28;20078;-67
2022/05/01 09:36:56;;;;;;;12.23;6.57;;;17.80;73.20;;;18.67;45.97;101697.78;5144453;28;20054;-67
2022/05/01 09:39:30;;;;;;;14.88;7.30;;;17.80;73.70;;;18.64;45.52;101703.84;5144786;28;20047;-67
2022/05/01 09:42:17;;;;;;;13.88;7.10;;;17.80;73.40;;;18.54;45.66;101703.69;5141899;28;20134;-67
2022/05/01 09:45:11;;;;;;;8.18;4.90;;;17.80;73.30;;;18.48;45.62;101698.31;5155186;28;20051;-69
2022/05/01 09:47:45;;;;;;;10.20;7.07;;;17.70;73.40;;;18.38;45.10;101702.53;5150695;28;20411;-68
2022/05/01 09:50:43;;;;;;;8.88;5.70;;;17.70;72.50;;;18.21;45.30;101696.97;5147428;28;20510;-67
2022/05/01 09:53:15;;;;;;;13.07;6.90;;;17.60;72.30;;;18.26;44.27;101691.81;5144498;28;20051;-67
2022/05/01 09:56:01;;;;;;;12.10;6.55;;;17.50;71.10;;;18.48;44.90;101699.22;5142095;28;20055;-67
2022/05/01 09:58:34;;;;;;;10.38;5.82;;;17.60;72.40;;;18.78;44.52;101688.28;5144196;28;20049;-67
2022/05/01 10:01:11;;;;;;;9.68;5.13;;;17.80;72.20;;;19.07;43.53;101690.47;5141906;28;20055;-67
2022/05/01 10:03:46;;;;;;;9.15;5.00;;;18.10;71.30;;;19.38;43.10;101689.13;5144216;28;20046;-68
2022/05/01 10:06:20;;;;;;;8.63;5.38;;;18.30;70.60;;;19.65;42.31;101680.66;5144693;28;20134;-68
2022/05/01 10:08:52;;;;;;;8.30;4.80;;;18.60;69.50;;;19.85;40.95;101680.91;5144337;28;20047;-68
2022/05/01 10:11:26;;;;;;;7.35;4.57;;;18.80;67.80;;;19.92;39.96;101685.38;5143830;28;20055;-64
2022/05/01 10:13:58;;;;;;;8.75;4.13;;;18.90;65.70;;;20.09;40.03;101680.28;5143679;28;20078;-70
2022/05/01 10:16:30;;;;;;;8.23;4.20;;;19.10;65.60;;;20.23;39.66;101687.47;5144307;28;20097;-69
2022/05/01 10:19:03;;;;;;;8.63;5.22;;;19.20;65.20;;;20.44;39.03;101672.63;5144523;28;20133;-69
2022/05/01 10:21:38;;;;;;;7.00;4.85;;;19.40;64.20;;;20.62;38.80;101675.47;5144259;28;20080;-66
2022/05/01 10:24:10;;;;;;;7.10;3.78;;;19.60;64.20;;;20.55;38.64;101668.34;5144572;28;20137;-67
2022/05/01 10:26:52;;;;;;;7.45;4.57;;;19.60;63.10;;;20.70;40.13;101668.44;5144217;28;20053;-67
2022/05/01 10:29:37;;;;;;;8.90;4.53;;;19.70;65.00;;;20.85;38.78;101667.66;5144002;28;20558;-67
2022/05/01 10:32:50;;;;;;;9.00;5.00;;;19.90;63.40;;;20.89;38.70;101671.22;5161817;28;20047;-67
2022/05/01 10:36:15;;;;;;;8.75;5.65;;;19.90;63.50;;;21.02;38.68;101649.22;5160860;28;20054;-67
2022/05/01 10:39:07;;;;;;;8.73;5.35;;;20.00;62.90;;;21.30;38.45;101651.16;5162762;28;20466;-66
2022/05/01 10:41:44;;;;;;;14.18;8.18;;;20.20;62.90;;;21.45;38.59;101645.00;5163675;28;20058;-67
2022/05/01 10:44:30;;;;;;;18.00;10.18;;;20.40;62.90;;;21.31;37.83;101642.31;5164148;28;20054;-67
2022/05/01 10:47:13;;;;;;;10.98;6.00;;;20.40;61.60;;;20.80;37.85;101633.19;5164216;28;20074;-68
2022/05/01 10:49:48;;;;;;;11.00;6.28;;;20.20;60.90;;;20.31;38.64;101637.22;5163769;28;20146;-67
2022/05/01 10:52:21;;;;;;;13.75;7.18;;;19.90;61.30;;;20.04;39.56;101643.16;5163509;28;20054;-69
2022/05/01 10:55:00;;;;;;;11.10;7.43;;;19.70;62.30;;;19.99;39.73;101636.94;5164066;28;20050;-68
2022/05/01 10:57:33;;;;;;;24.20;14.52;;;19.50;62.60;;;20.29;40.06;101639.84;5163986;28;20058;-61
2022/05/01 11:00:10;;;;;;;22.88;12.13;;;19.60;63.40;;;20.69;39.81;101636.66;5157725;28;20440;-62
2022/05/01 11:02:47;;;;;;;12.27;7.40;;;19.80;63.80;;;20.93;39.01;101627.94;5137734;28;20051;-62
2022/05/01 11:05:44;;;;;;;9.98;5.93;;;20.00;62.90;;;21.23;38.66;101628.09;5143191;28;20053;-60
2022/05/01 11:08:19;;;;;;;10.52;6.50;;;20.30;62.40;;;21.43;37.75;101627.31;5140938;28;20047;-62
2022/05/01 11:10:55;;;;;;;10.25;5.88;;;20.50;61.40;;;21.33;37.73;101619.34;5143711;28;20102;-63